Time;durP1;ratioP1;P1;durP2;ratioP2;P2;SDS_P1;SDS_P2;PMS_P1;PMS_P2;Temp;Humidity;BMP_temperature;BMP_pressure;BME280_temperature;BME280_humidity;BME280_pressure;Samples;Min_cycle;Max_cycle;Signal;HPM_P1;HPM_P2
2023/08/18 00:01:08;;;;;;;16.47;9.17;;;;;;;17.23;100.00;101685.63;5055659;28;20040;-90
2023/08/18 00:03:40;;;;;;;16.38;9.15;;;;;;;17.13;100.00;101678.03;5055858;28;20032;-89
2023/08/18 00:06:05;;;;;;;17.83;9.50;;;;;;;17.16;100.00;101686.72;5055496;28;20029;-88
2023/08/18 00:08:30;;;;;;;15.23;8.50;;;;;;;17.11;100.00;101673.75;5055620;28;20425;-88
2023/08/18 00:11:05;;;;;;;16.57;8.83;;;;;;;17.13;100.00;101669.34;5056238;28;20032;-88
2023/08/18 00:13:31;;;;;;;16.77;9.50;;;;;;;17.12;100.00;101689.44;5056130;28;20048;-87
2023/08/18 00:15:56;;;;;;;16.60;9.23;;;;;;;17.11;100.00;101690.34;5054724;28;20080;-88
2023/08/18 00:18:38;;;;;;;15.27;8.57;;;;;;;17.10;100.00;101679.91;5055021;28;20040;-87
2023/08/18 00:21:03;;;;;;;17.38;9.32;;;;;;;17.04;100.00;101675.69;5056082;28;20036;-87
2023/08/18 00:23:29;;;;;;;17.30;9.90;;;;;;;17.05;100.00;101671.34;5055223;28;20440;-88
2023/08/18 00:25:54;;;;;;;16.47;8.90;;;;;;;17.02;100.00;101663.53;5056051;28;20021;-89
2023/08/18 00:28:19;;;;;;;13.87;7.80;;;;;;;17.10;100.00;101674.66;5055413;28;20017;-88
2023/08/18 00:30:57;;;;;;;14.20;7.57;;;;;;;17.05;100.00;101659.06;5055120;28;20381;-89
2023/08/18 00:33:22;;;;;;;12.38;6.90;;;;;;;17.07;100.00;101670.38;5047242;28;20034;-89
2023/08/18 00:35:48;;;;;;;12.97;7.47;;;;;;;17.12;100.00;101678.09;5035226;28;20032;-89
2023/08/18 00:38:15;;;;;;;14.73;8.47;;;;;;;17.02;100.00;101655.69;5034226;28;20120;-89
2023/08/18 00:40:41;;;;;;;15.88;9.52;;;;;;;17.05;100.00;101672.19;5035302;28;20386;-88
2023/08/18 00:43:18;;;;;;;15.27;8.07;;;;;;;17.04;100.00;101667.84;5026478;28;20117;-87
2023/08/18 00:45:44;;;;;;;16.63;9.38;;;;;;;16.97;100.00;101666.31;5035268;28;20029;-88
2023/08/18 00:48:09;;;;;;;16.57;9.03;;;;;;;16.96;100.00;101675.06;5035479;28;20029;-88
2023/08/18 00:50:35;;;;;;;13.30;7.93;;;;;;;16.95;100.00;101668.94;5035189;28;20032;-88
2023/08/18 00:53:00;;;;;;;15.45;8.63;;;;;;;16.89;100.00;101652.53;5035246;28;20056;-88
2023/08/18 00:55:27;;;;;;;13.50;7.83;;;;;;;16.97;100.00;101674.16;5034869;28;20075;-89
2023/08/18 00:58:05;;;;;;;14.93;8.80;;;;;;;16.95;100.00;101663.72;5034944;28;20022;-89
2023/08/18 01:00:30;;;;;;;14.55;8.07;;;;;;;16.92;100.00;101657.66;5035327;28;20048;-88
2023/08/18 01:03:09;;;;;;;11.67;6.77;;;;;;;16.92;100.00;101658.53;5035212;28;20475;-89
2023/08/18 01:05:34;;;;;;;15.15;8.77;;;;;;;16.91;100.00;101663.81;5034919;28;20022;-89
2023/08/18 01:08:12;;;;;;;15.53;9.23;;;;;;;16.81;100.00;101658.00;5035149;28;20440;-90
2023/08/18 01:11:02;;;;;;;13.55;7.47;;;;;;;16.87;100.00;101662.19;5035097;28;20057;-88
2023/08/18 01:13:47;;;;;;;7.65;5.10;;;;;;;16.85;100.00;101656.97;5034693;28;20040;-88
2023/08/18 01:16:28;;;;;;;14.30;8.30;;;;;;;16.79;100.00;101650.16;5034151;28;20049;-89
2023/08/18 01:18:54;;;;;;;14.23;8.07;;;;;;;16.88;100.00;101677.88;5034224;28;20036;-87
2023/08/18 01:21:22;;;;;;;14.97;8.27;;;;;;;16.84;100.00;101668.38;5034686;28;20021;-88
2023/08/18 01:23:47;;;;;;;13.05;7.85;;;;;;;16.73;100.00;101650.34;5034756;28;20280;-88
2023/08/18 01:26:13;;;;;;;14.50;8.10;;;;;;;16.84;100.00;101665.75;5034119;28;20075;-88
2023/08/18 01:28:40;;;;;;;8.00;5.20;;;;;;;16.82;100.00;101655.31;5052363;28;20036;-88
2023/08/18 01:31:26;;;;;;;;;;;;;;;16.86;100.00;101652.63;5054620;28;20108;-87
2023/08/18 01:34:01;;;;;;;15.77;8.20;;;;;;;16.73;100.00;101636.34;5053979;28;19935;-87
2023/08/18 01:36:33;;;;;;;15.98;8.70;;;;;;;16.71;100.00;101630.31;5054097;28;20545;-89
2023/08/18 01:39:01;;;;;;;15.35;8.25;;;;;;;16.74;100.00;101643.31;5054866;28;20021;-87
2023/08/18 01:41:27;;;;;;;16.20;8.65;;;;;;;16.67;100.00;101637.38;5044163;28;20053;-89
2023/08/18 01:43:53;;;;;;;13.37;7.70;;;;;;;16.68;100.00;101631.25;5034519;28;20045;-89
2023/08/18 01:46:18;;;;;;;11.23;6.50;;;;;;;16.74;100.00;101636.34;5034265;28;20546;-88
2023/08/18 01:48:59;;;;;;;7.13;4.60;;;;;;;16.74;100.00;101628.47;5033482;28;20025;-89
2023/08/18 01:51:24;;;;;;;12.93;7.05;;;;;;;16.68;100.00;101620.75;5034158;28;20025;-89
2023/08/18 01:53:50;;;;;;;17.93;9.70;;;;;;;16.62;100.00;101627.03;5033300;28;20237;-87
2023/08/18 01:56:15;;;;;;;13.67;7.83;;;;;;;16.67;100.00;101629.53;5032867;28;20513;-88
2023/08/18 01:58:41;;;;;;;15.30;8.17;;;;;;;16.64;100.00;101627.88;5034360;28;20508;-89
2023/08/18 02:01:06;;;;;;;16.90;9.65;;;;;;;16.51;100.00;101609.00;5032897;28;20470;-88
2023/08/18 02:03:32;;;;;;;15.33;8.10;;;;;;;16.60;100.00;101614.88;5034096;28;20123;-88
2023/08/18 02:05:57;;;;;;;19.60;9.63;;;;;;;16.53;100.00;101624.69;5033809;28;20470;-88
2023/08/18 02:08:23;;;;;;;15.77;8.50;;;;;;;16.45;100.00;101611.78;5033384;28;20021;-87
2023/08/18 02:10:48;;;;;;;17.90;9.30;;;;;;;16.45;100.00;101632.75;5033491;28;20041;-87
2023/08/18 02:13:26;;;;;;;14.90;8.07;;;;;;;16.48;100.00;101634.44;5036750;28;20037;-89
2023/08/18 02:16:00;;;;;;;14.65;7.75;;;;;;;16.35;100.00;101607.72;5032924;28;20061;-88
2023/08/18 02:18:29;;;;;;;17.33;9.30;;;;;;;16.30;100.00;101602.59;5032971;28;20429;-88
2023/08/18 02:20:59;;;;;;;16.10;8.95;;;;;;;16.40;100.00;101615.44;5033707;28;20025;-87
2023/08/18 02:23:24;;;;;;;15.65;8.20;;;;;;;16.44;100.00;101615.31;5032626;28;20485;-87
2023/08/18 02:25:50;;;;;;;14.97;8.47;;;;;;;16.40;100.00;101612.81;5033280;28;20029;-87
2023/08/18 02:28:17;;;;;;;15.87;9.33;;;;;;;16.33;100.00;101601.66;5033044;28;20025;-88
2023/08/18 02:31:03;;;;;;;17.15;9.95;;;;;;;16.42;100.00;101621.50;5032336;28;20025;-88
2023/08/18 02:33:29;;;;;;;15.18;8.50;;;;;;;16.36;100.00;101597.22;5033924;28;20029;-87
2023/08/18 02:35:55;;;;;;;15.97;8.80;;;;;;;16.34;100.00;101595.50;5033000;28;20033;-88
2023/08/18 02:38:33;;;;;;;15.70;8.45;;;;;;;16.39;100.00;101600.63;5032875;28;20029;-88
2023/08/18 02:40:59;;;;;;;16.60;9.38;;;;;;;16.36;100.00;101605.06;5033662;28;20031;-87
2023/08/18 02:43:25;;;;;;;15.40;8.40;;;;;;;16.46;100.00;101621.38;5032831;28;20025;-89
2023/08/18 02:46:06;;;;;;;13.35;7.40;;;;;;;16.39;100.00;101600.63;5033167;28;20034;-88
2023/08/18 02:48:31;;;;;;;16.80;9.20;;;;;;;16.40;100.00;101602.34;5033063;28;20076;-88
2023/08/18 02:51:22;;;;;;;15.27;8.43;;;;;;;16.42;100.00;101598.78;5032976;28;20462;-88
2023/08/18 02:53:50;;;;;;;11.70;6.25;;;;;;;16.38;100.00;101591.91;5033323;28;20119;-88
2023/08/18 02:56:15;;;;;;;11.43;6.20;;;;;;;16.50;100.00;101612.53;5034033;28;20526;-88
2023/08/18 02:58:41;;;;;;;18.33;10.13;;;;;;;16.43;100.00;101611.00;5032054;28;20116;-87
2023/08/18 03:01:18;;;;;;;16.20;9.50;;;;;;;16.41;100.00;101607.56;5032746;28;20025;-87
2023/08/18 03:03:43;;;;;;;16.77;9.65;;;;;;;16.35;100.00;101595.47;5032459;28;20148;-87
2023/08/18 03:06:09;;;;;;;17.70;10.27;;;;;;;16.25;100.00;101590.53;5032287;28;20025;-87
2023/08/18 03:08:36;;;;;;;16.80;8.87;;;;;;;16.34;100.00;101599.00;5036193;28;20122;-88
2023/08/18 03:11:17;;;;;;;16.17;9.07;;;;;;;16.34;100.00;101606.00;5036537;28;20109;-88
2023/08/18 03:13:50;;;;;;;16.58;8.95;;;;;;;16.29;100.00;101589.56;5037162;28;20025;-87
2023/08/18 03:16:17;;;;;;;16.27;8.68;;;;;;;16.31;100.00;101593.84;5036848;28;20057;-88
2023/08/18 03:18:43;;;;;;;12.18;6.68;;;;;;;16.34;100.00;101596.38;5036710;28;20092;-87
2023/08/18 03:21:08;;;;;;;15.73;8.90;;;;;;;16.34;100.00;101600.75;5037128;28;20125;-87
2023/08/18 03:23:34;;;;;;;15.33;8.40;;;;;;;16.30;100.00;101588.66;5037622;28;20021;-88
2023/08/18 03:26:04;;;;;;;16.03;8.70;;;;;;;16.35;100.00;101605.09;5036541;28;20021;-89
2023/08/18 03:28:35;;;;;;;15.90;8.55;;;;;;;16.23;100.00;101587.97;5036908;28;20052;-87
2023/08/18 03:31:02;;;;;;;17.05;8.52;;;;;;;16.37;100.00;101608.53;5036063;28;20040;-89
2023/08/18 03:33:29;;;;;;;16.58;9.27;;;;;;;16.31;100.00;101609.56;5039514;28;20032;-91
2023/08/18 03:35:54;;;;;;;17.58;9.50;;;;;;;16.21;100.00;101593.22;5040129;28;20033;-91
2023/08/18 03:38:23;;;;;;;14.63;8.07;;;;;;;16.28;100.00;101599.16;5037265;28;20111;-90
2023/08/18 03:40:49;;;;;;;15.00;8.20;;;;;;;16.28;100.00;101603.53;5037134;28;20508;-90
2023/08/18 03:43:18;;;;;;;15.20;8.70;;;;;;;16.25;100.00;101594.03;5036755;28;20025;-87
2023/08/18 03:45:52;;;;;;;16.90;9.85;;;;;;;16.12;100.00;101592.63;5036674;28;20033;-87
2023/08/18 03:48:24;;;;;;;18.42;10.25;;;;;;;16.09;100.00;101587.47;5035556;28;20466;-89
2023/08/18 03:50:55;;;;;;;18.52;10.52;;;;;;;16.10;100.00;101603.13;5036742;28;20028;-89
2023/08/18 03:53:23;;;;;;;17.55;9.70;;;;;;;16.02;100.00;101579.78;5036044;28;20091;-89
2023/08/18 03:55:52;;;;;;;16.48;9.32;;;;;;;16.06;100.00;101581.41;5032440;28;20033;-89
2023/08/18 03:58:18;;;;;;;13.63;7.43;;;;;;;16.05;100.00;101577.06;5036370;28;20032;-89
2023/08/18 04:00:44;;;;;;;13.57;7.77;;;;;;;16.16;100.00;101605.59;5036274;28;20037;-88
2023/08/18 04:03:09;;;;;;;13.77;7.53;;;;;;;16.17;100.00;101606.44;5036086;28;20160;-89
2023/08/18 04:05:36;;;;;;;18.23;10.20;;;;;;;16.03;100.00;101597.22;5036228;28;20083;-89
2023/08/18 04:08:01;;;;;;;18.42;10.32;;;;;;;16.10;100.00;101600.50;5035948;28;20037;-94
2023/08/18 04:10:39;;;;;;;17.17;9.27;;;;;;;16.04;100.00;101590.19;5038658;28;20126;-89
2023/08/18 04:13:20;;;;;;;16.67;9.15;;;;;;;16.09;100.00;101600.56;5056413;28;20033;-89
2023/08/18 04:15:45;;;;;;;19.63;11.45;;;;;;;15.89;100.00;101584.47;5054279;28;20401;-87
2023/08/18 04:18:10;;;;;;;20.50;11.27;;;;;;;16.00;100.00;101605.13;5055956;28;20033;-89
2023/08/18 04:20:36;;;;;;;17.77;9.77;;;;;;;16.01;100.00;101609.47;5055616;28;20517;-89
2023/08/18 04:23:01;;;;;;;18.70;10.27;;;;;;;16.00;100.00;101604.25;5056307;28;20466;-86
2023/08/18 04:25:26;;;;;;;18.77;10.07;;;;;;;15.98;100.00;101598.22;5055031;28;20021;-86
2023/08/18 04:27:52;;;;;;;20.07;11.70;;;;;;;15.98;100.00;101599.06;5055195;28;20204;-90
2023/08/18 04:30:17;;;;;;;21.17;11.23;;;;;;;15.96;100.00;101592.16;5042452;28;20076;-87
2023/08/18 04:32:43;;;;;;;19.93;11.40;;;;;;;15.95;100.00;101586.06;5035930;28;20033;-93
2023/08/18 04:35:08;;;;;;;19.07;9.80;;;;;;;15.96;100.00;101581.69;5037336;28;20067;-92
2023/08/18 04:37:33;;;;;;;17.30;8.77;;;;;;;15.94;100.00;101581.72;5036692;28;20030;-91
2023/08/18 04:39:59;;;;;;;20.90;10.70;;;;;;;15.95;100.00;101585.22;5035676;28;20036;-91
2023/08/18 04:42:37;;;;;;;19.60;10.13;;;;;;;15.85;100.00;101571.50;5036060;28;20030;-92
2023/08/18 04:45:06;;;;;;;19.02;10.32;;;;;;;15.94;100.00;101580.88;5036378;28;20029;-91
2023/08/18 04:47:31;;;;;;;21.17;12.23;;;;;;;15.87;100.00;101583.66;5035939;28;20087;-91
2023/08/18 04:49:57;;;;;;;19.07;10.47;;;;;;;15.80;100.00;101568.97;5035993;28;20088;-90
2023/08/18 04:52:46;;;;;;;21.48;12.75;;;;;;;15.93;100.00;101593.09;5055637;28;20086;-91
2023/08/18 04:55:11;;;;;;;20.95;10.98;;;;;;;15.81;100.00;101578.53;5055358;28;20037;-93
2023/08/18 04:57:37;;;;;;;20.77;11.60;;;;;;;15.93;100.00;101592.25;5037901;28;20104;-92
2023/08/18 05:00:05;;;;;;;18.17;9.50;;;;;;;15.95;100.00;101593.06;5051012;28;20028;-91
2023/08/18 05:02:30;;;;;;;14.13;7.20;;;;;;;16.01;100.00;101606.88;5036357;28;20026;-94
2023/08/18 05:04:55;;;;;;;13.60;7.13;;;;;;;16.07;100.00;101603.22;5035496;28;20493;-92
2023/08/18 05:07:28;;;;;;;18.03;9.17;;;;;;;16.00;100.00;101596.41;5035316;28;20479;-92
2023/08/18 05:09:56;;;;;;;19.88;10.90;;;;;;;15.94;100.00;101586.97;5036015;28;20072;-92
2023/08/18 05:12:21;;;;;;;18.35;10.20;;;;;;;16.05;100.00;101599.78;5035440;28;20041;-92
2023/08/18 05:15:12;;;;;;;21.10;12.47;;;;;;;15.97;100.00;101601.75;5035398;28;20110;-93
2023/08/18 05:17:38;;;;;;;22.42;12.77;;;;;;;15.93;100.00;101597.47;5016185;28;20042;-92
2023/08/18 05:20:22;;;;;;;23.93;13.77;;;;;;;15.93;100.00;101590.47;5015877;28;20029;-92
2023/08/18 05:22:47;;;;;;;23.33;13.68;;;;;;;15.80;100.00;101573.34;5015956;28;20036;-92
2023/08/18 05:25:13;;;;;;;22.57;12.40;;;;;;;15.80;100.00;101562.88;5015236;28;20013;-93
2023/08/18 05:27:39;;;;;;;19.97;11.27;;;;;;;16.00;100.00;101584.19;5015934;28;20108;-93
2023/08/18 05:30:17;;;;;;;22.07;12.13;;;;;;;15.88;100.00;101551.31;5015745;28;20021;-93
2023/08/18 05:32:42;;;;;;;21.92;11.68;;;;;;;15.98;100.00;101567.66;5015603;28;20041;-93
2023/08/18 05:35:10;;;;;;;21.40;12.73;;;;;;;16.01;100.00;101572.81;5015207;28;20026;-93
2023/08/18 05:37:35;;;;;;;23.67;14.32;;;;;;;15.90;100.00;101570.47;5015387;28;20105;-92
2023/08/18 05:40:14;;;;;;;24.07;13.87;;;;;;;15.95;100.00;101577.38;5014744;28;20165;-92
2023/08/18 05:42:39;;;;;;;23.88;14.65;;;;;;;15.92;100.00;101561.72;5015092;28;20378;-93
2023/08/18 05:45:05;;;;;;;22.10;13.73;;;;;;;15.98;100.00;101569.44;5015206;28;20037;-92
2023/08/18 05:47:30;;;;;;;20.80;11.70;;;;;;;16.11;100.00;101583.06;5015281;28;20034;-92
2023/08/18 05:50:12;;;;;;;22.70;13.83;;;;;;;16.01;100.00;101570.22;5014743;28;20550;-92
2023/08/18 05:52:37;;;;;;;23.30;14.18;;;;;;;16.05;100.00;101568.38;5015858;28;20026;-93
2023/08/18 05:55:04;;;;;;;24.60;14.83;;;;;;;16.13;100.00;101591.72;5017088;28;20028;-93
2023/08/18 05:57:30;;;;;;;23.13;14.63;;;;;;;16.03;100.00;101565.78;5018903;28;20382;-92
2023/08/18 05:59:55;;;;;;;22.27;12.00;;;;;;;16.07;100.00;101569.19;5017234;28;20033;-92
2023/08/18 06:02:21;;;;;;;23.43;13.17;;;;;;;16.15;100.00;101575.06;5014426;28;20474;-92
2023/08/18 06:04:58;;;;;;;20.47;11.40;;;;;;;16.18;100.00;101564.53;5014363;28;20025;-91
2023/08/18 06:07:33;;;;;;;22.25;13.80;;;;;;;16.24;100.00;101570.47;5014752;28;20034;-93
2023/08/18 06:09:59;;;;;;;20.75;11.85;;;;;;;16.31;100.00;101577.28;5015267;28;20164;-93
2023/08/18 06:12:24;;;;;;;22.00;12.73;;;;;;;16.29;100.00;101586.94;5014192;28;20057;-93
2023/08/18 06:14:50;;;;;;;23.73;13.77;;;;;;;16.21;100.00;101590.59;4996437;28;20045;-92
2023/08/18 06:17:15;;;;;;;23.93;14.77;;;;;;;16.05;100.00;101589.31;5032814;28;20051;-91
2023/08/18 06:19:52;;;;;;;25.30;15.17;;;;;;;16.05;100.00;101605.88;5034581;28;20068;-94
2023/08/18 06:22:17;;;;;;;22.50;13.90;;;;;;;16.02;100.00;101592.88;5034240;28;20021;-91
2023/08/18 06:24:43;;;;;;;21.77;12.07;;;;;;;16.09;100.00;101596.19;5033967;28;20031;-91
2023/08/18 06:27:08;;;;;;;23.47;14.53;;;;;;;16.10;100.00;101605.75;5034089;28;20351;-94
2023/08/18 06:29:42;;;;;;;22.87;13.77;;;;;;;15.99;100.00;101572.00;5034515;28;20029;-91
2023/08/18 06:32:07;;;;;;;22.02;12.43;;;;;;;16.09;100.00;101575.25;5033794;28;20032;-93
2023/08/18 06:34:59;;;;;;;24.50;15.00;;;;;;;16.19;100.00;101587.19;5033428;28;20108;-89
2023/08/18 06:37:25;;;;;;;22.48;12.80;;;;;;;16.22;100.00;101586.25;5027959;28;20073;-85
2023/08/18 06:39:51;;;;;;;23.38;13.90;;;;;;;16.19;100.00;101571.47;5032696;28;20460;-84
2023/08/18 06:42:16;;;;;;;23.90;14.13;;;;;;;16.13;100.00;101569.00;5050816;28;20108;-84
2023/08/18 06:44:53;;;;;;;21.27;11.90;;;;;;;16.16;100.00;101561.06;5052805;28;20562;-87
2023/08/18 06:47:28;;;;;;;17.13;9.18;;;;;;;16.31;100.00;101566.81;5052803;28;20032;-88
2023/08/18 06:50:09;;;;;;;20.23;11.20;;;;;;;16.37;100.00;101571.84;5052368;28;20021;-88
2023/08/18 06:52:35;;;;;;;20.25;11.23;;;;;;;16.55;100.00;101572.25;5045639;28;20033;-84
2023/08/18 06:55:04;;;;;;;19.70;10.40;;;;;;;16.60;100.00;101586.94;5032668;28;20033;-84
2023/08/18 06:57:47;;;;;;;19.08;10.80;;;;;;;16.55;100.00;101580.97;5031778;28;20033;-85
2023/08/18 07:00:17;;;;;;;24.75;15.30;;;;;;;16.38;100.00;101581.44;5032065;28;20466;-85
2023/08/18 07:02:42;;;;;;;24.30;14.35;;;;;;;16.36;100.00;101583.22;5032557;28;20455;-85
2023/08/18 07:05:08;;;;;;;22.10;13.30;;;;;;;16.32;100.00;101568.53;5031548;28;20053;-83
2023/08/18 07:07:34;;;;;;;25.10;15.07;;;;;;;16.29;100.00;101576.47;5033417;28;20095;-89
2023/08/18 07:09:59;;;;;;;24.60;14.43;;;;;;;16.24;100.00;101570.47;5031669;28;20108;-83
2023/08/18 07:12:24;;;;;;;20.53;11.07;;;;;;;16.30;100.00;101568.53;5032462;28;20037;-83
2023/08/18 07:14:50;;;;;;;21.80;11.87;;;;;;;16.35;100.00;101563.19;5032523;28;20029;-84
2023/08/18 07:17:17;;;;;;;22.33;12.67;;;;;;;16.35;100.00;101557.94;5030360;28;20144;-84
2023/08/18 07:19:43;;;;;;;24.58;13.85;;;;;;;16.31;100.00;101544.06;5032418;28;20048;-84
2023/08/18 07:22:09;;;;;;;21.52;11.80;;;;;;;16.44;100.00;101564.69;5051546;28;20048;-84
2023/08/18 07:24:34;;;;;;;22.07;12.80;;;;;;;16.36;100.00;101554.41;5051658;28;20542;-83
2023/08/18 07:26:59;;;;;;;25.10;15.73;;;;;;;16.42;100.00;101564.75;5051967;28;20033;-85
2023/08/18 07:29:25;;;;;;;28.03;17.27;;;;;;;16.40;100.00;101568.28;5052139;28;20025;-84
2023/08/18 07:31:56;;;;;;;24.37;13.77;;;;;;;16.39;100.00;101558.69;5049668;28;20025;-84
2023/08/18 07:34:21;;;;;;;22.98;13.35;;;;;;;16.48;100.00;101555.84;5051748;28;20025;-84
2023/08/18 07:36:47;;;;;;;25.33;15.73;;;;;;;16.45;100.00;101554.16;5052496;28;20365;-86
2023/08/18 07:39:12;;;;;;;25.60;16.43;;;;;;;16.39;100.00;101551.72;5051302;28;20025;-84
2023/08/18 07:41:40;;;;;;;23.50;13.70;;;;;;;16.55;100.00;101567.84;5036198;28;20474;-85
2023/08/18 07:44:07;;;;;;;22.33;12.43;;;;;;;16.57;100.00;101565.19;5031778;28;20043;-88
2023/08/18 07:46:33;;;;;;;26.52;15.60;;;;;;;16.57;100.00;101565.19;5031605;28;20107;-85
2023/08/18 07:48:58;;;;;;;26.23;16.08;;;;;;;16.59;100.00;101555.53;5039333;28;20029;-84
2023/08/18 07:51:24;;;;;;;24.93;14.83;;;;;;;16.61;100.00;101559.81;5051617;28;20032;-84
2023/08/18 07:53:50;;;;;;;25.43;15.30;;;;;;;16.65;100.00;101582.41;5051300;28;20032;-86
2023/08/18 07:56:15;;;;;;;27.15;16.08;;;;;;;16.55;100.00;101567.84;5055634;28;20036;-86
2023/08/18 07:58:40;;;;;;;24.30;14.20;;;;;;;16.64;100.00;101572.81;5055408;28;20381;-86
2023/08/18 08:01:06;;;;;;;25.77;16.00;;;;;;;16.70;100.00;101579.66;5054616;28;20067;-86
2023/08/18 08:03:32;;;;;;;21.38;12.32;;;;;;;16.70;100.00;101579.66;5055932;28;20088;-86
2023/08/18 08:05:57;;;;;;;21.53;12.20;;;;;;;16.74;100.00;101570.81;5055369;28;20377;-86
2023/08/18 08:08:29;;;;;;;19.77;10.17;;;;;;;16.89;100.00;101581.75;5051841;28;20036;-87
2023/08/18 08:10:54;;;;;;;25.77;15.63;;;;;;;16.82;100.00;101575.81;5055323;28;20123;-87
2023/08/18 08:13:20;;;;;;;27.60;17.47;;;;;;;16.70;100.00;101573.56;5054437;28;20029;-86
2023/08/18 08:15:45;;;;;;;25.85;16.25;;;;;;;16.75;100.00;101590.88;5055059;28;20430;-86
2023/08/18 08:18:13;;;;;;;24.90;15.20;;;;;;;16.70;100.00;101571.78;5036385;28;20385;-87
2023/08/18 08:20:40;;;;;;;25.10;15.25;;;;;;;16.79;100.00;101586.41;5034643;28;20025;-87
2023/08/18 08:23:05;;;;;;;26.65;16.83;;;;;;;16.74;100.00;101568.19;5033885;28;20044;-86
2023/08/18 08:25:31;;;;;;;27.00;16.87;;;;;;;16.81;100.00;101580.19;5034942;28;20029;-86
2023/08/18 08:27:56;;;;;;;25.73;16.97;;;;;;;16.92;100.00;101589.50;5034344;28;20057;-84
2023/08/18 08:30:21;;;;;;;24.00;14.73;;;;;;;16.99;100.00;101585.84;5035894;28;20564;-83
2023/08/18 08:32:47;;;;;;;27.67;17.63;;;;;;;16.95;100.00;101595.53;5035483;28;20021;-85
2023/08/18 08:35:27;;;;;;;24.90;15.20;;;;;;;16.88;100.00;101569.53;5033660;28;20077;-86
2023/08/18 08:38:01;;;;;;;29.08;18.92;;;;;;;16.92;100.00;101597.38;5035061;28;20065;-86
2023/08/18 08:40:27;;;;;;;29.58;19.08;;;;;;;16.87;100.00;101587.00;5034352;28;20044;-86
2023/08/18 08:42:58;;;;;;;27.17;16.93;;;;;;;16.90;100.00;101592.19;5033973;28;20037;-86
2023/08/18 08:45:25;;;;;;;24.08;13.98;;;;;;;17.07;100.00;101604.81;5035651;28;20108;-87
2023/08/18 08:47:56;;;;;;;27.17;17.23;;;;;;;17.05;100.00;101597.91;5034593;28;20064;-87
2023/08/18 08:50:27;;;;;;;26.15;16.05;;;;;;;17.17;100.00;101604.53;5034425;28;20419;-87
2023/08/18 08:53:09;;;;;;;22.95;13.98;;;;;;;17.20;100.00;101596.56;5034718;28;20105;-86
2023/08/18 08:55:36;;;;;;;21.92;12.75;;;;;;;17.26;100.00;101593.75;5033477;28;20027;-82
2023/08/18 08:58:02;;;;;;;20.38;11.02;;;;;;;17.49;100.00;101603.53;5036120;28;20083;-82
2023/08/18 09:00:27;;;;;;;20.87;11.20;;;;;;;17.70;100.00;101611.59;5034585;28;20026;-82
2023/08/18 09:02:53;;;;;;;19.87;10.23;;;;;;;17.77;100.00;101612.25;5035653;28;20029;-82
2023/08/18 09:05:19;;;;;;;17.07;9.00;;;;;;;17.85;100.00;101608.44;5034708;28;20025;-81
2023/08/18 09:07:48;;;;;;;16.58;8.65;;;;;;;17.96;100.00;101613.34;5034486;28;20033;-82
2023/08/18 09:10:13;;;;;;;16.23;8.13;;;;;;;18.00;100.00;101611.50;5033490;28;20052;-81
2023/08/18 09:12:38;;;;;;;19.70;10.40;;;;;;;18.05;100.00;101617.47;5034478;28;20017;-81
2023/08/18 09:15:07;;;;;;;24.43;14.67;;;;;;;17.94;100.00;101609.91;5033913;28;20025;-81
2023/08/18 09:17:32;;;;;;;21.15;12.60;;;;;;;17.95;100.00;101611.63;5033957;28;20421;-81
2023/08/18 09:19:58;;;;;;;19.23;11.07;;;;;;;18.02;100.00;101609.69;5035284;28;20028;-81
2023/08/18 09:22:24;;;;;;;25.53;16.50;;;;;;;17.97;100.00;101615.09;5033627;28;20037;-81
2023/08/18 09:24:52;;;;;;;25.97;16.37;;;;;;;17.86;100.00;101618.03;5033280;28;20040;-81
2023/08/18 09:27:20;;;;;;;22.08;13.38;;;;;;;17.92;100.00;101606.47;5033171;28;20021;-87
2023/08/18 09:29:45;;;;;;;23.70;14.85;;;;;;;17.91;100.00;101608.25;5041105;28;20020;-87
2023/08/18 09:32:11;;;;;;;24.17;14.83;;;;;;;17.84;100.00;101601.50;5052659;28;20033;-83
2023/08/18 09:34:43;;;;;;;23.23;14.57;;;;;;;17.84;100.00;101603.25;5054098;28;20052;-86
2023/08/18 09:37:09;;;;;;;24.30;15.50;;;;;;;17.75;100.00;101602.66;5059155;28;20437;-86
2023/08/18 09:39:34;;;;;;;23.83;14.67;;;;;;;17.72;100.00;101599.28;5052617;28;20017;-86
2023/08/18 09:42:13;;;;;;;21.70;12.20;;;;;;;17.90;100.00;101600.44;5053395;28;20108;-87
2023/08/18 09:44:39;;;;;;;18.80;9.60;;;;;;;18.05;100.00;101591.19;5053564;28;20037;-88
2023/08/18 09:47:06;;;;;;;15.03;8.00;;;;;;;18.24;100.00;101578.25;5053432;28;20167;-87
2023/08/18 09:49:46;;;;;;;21.65;11.75;;;;;;;18.43;100.00;101598.63;5053923;28;20025;-87
2023/08/18 09:52:26;;;;;;;22.80;13.50;;;;;;;18.36;100.00;101590.94;5053162;28;20443;-90
2023/08/18 09:55:23;;;;;;;25.42;16.45;;;;;;;18.26;100.00;101599.22;5053468;28;20099;-83
2023/08/18 09:58:30;;;;;;;24.90;15.82;;;;;;;18.17;100.00;101593.41;5046365;28;20116;-83
2023/08/18 10:00:56;;;;;;;27.75;18.42;;;;;;;18.02;100.00;101580.78;4997678;28;20037;-84
2023/08/18 10:03:25;;;;;;;25.35;15.50;;;;;;;18.17;100.00;101582.88;5052976;28;20868;-84
2023/08/18 10:05:52;;;;;;;21.17;12.40;;;;;;;18.32;100.00;101581.47;5038312;28;20037;-86
2023/08/18 10:08:19;;;;;;;21.73;12.07;;;;;;;18.47;100.00;101589.69;5032435;28;20068;-80
2023/08/18 10:10:45;;;;;;;19.08;10.73;;;;;;;18.64;100.00;101579.44;5033333;28;20021;-86
2023/08/18 10:13:12;;;;;;;21.70;12.80;;;;;;;18.72;100.00;101591.41;5032142;28;20075;-89
2023/08/18 10:15:38;;;;;;;25.33;16.02;;;;;;;18.66;100.00;101580.22;5033561;28;20080;-87
2023/08/18 10:18:09;;;;;;;24.38;15.27;;;;;;;18.59;100.00;101575.25;5032409;28;20061;-88
2023/08/18 10:20:35;;;;;;;25.73;15.90;;;;;;;18.61;100.00;101576.91;5032993;28;20029;-88
2023/08/18 10:23:02;;;;;;;20.05;11.38;;;;;;;18.74;100.00;101572.06;5032357;28;20037;-88
2023/08/18 10:25:29;;;;;;;20.70;12.07;;;;;;;18.98;100.00;101577.28;5038838;28;20032;-88
2023/08/18 10:27:55;;;;;;;25.40;15.20;;;;;;;19.01;100.00;101569.28;5052804;28;20074;-88
2023/08/18 10:30:20;;;;;;;27.17;17.23;;;;;;;18.88;100.00;101563.63;5053176;28;20029;-89
2023/08/18 10:32:45;;;;;;;26.33;16.97;;;;;;;18.95;100.00;101562.50;5053255;28;20594;-84
2023/08/18 10:35:27;;;;;;;23.43;14.27;;;;;;;19.05;100.00;101559.50;5050497;28;20041;-83
2023/08/18 10:38:04;;;;;;;23.42;14.35;;;;;;;19.18;100.00;101552.84;5052355;28;20107;-84
2023/08/18 10:40:37;;;;;;;19.90;11.32;;;;;;;19.35;100.00;101559.19;5052807;28;20025;-83
2023/08/18 10:43:25;;;;;;;25.75;17.17;;;;;;;19.20;100.00;101542.25;5051550;28;20484;-82
2023/08/18 10:45:55;;;;;;;23.65;14.57;;;;;;;19.33;100.00;101559.25;5052547;28;20021;-84
2023/08/18 10:48:21;;;;;;;24.73;15.68;;;;;;;19.37;99.70;101558.22;5051287;28;20036;-83
2023/08/18 10:50:47;;;;;;;25.10;16.27;;;;;;;19.41;99.91;101544.03;5052115;28;20488;-83
2023/08/18 10:53:15;;;;;;;20.30;12.20;;;;;;;19.58;100.00;101545.94;5052290;28;20021;-85
2023/08/18 10:55:44;;;;;;;21.55;12.40;;;;;;;19.74;100.00;101542.66;5050153;28;20384;-84
2023/08/18 10:58:09;;;;;;;20.33;11.73;;;;;;;19.89;99.81;101541.16;5051182;28;20037;-84
2023/08/18 11:00:36;;;;;;;18.70;10.63;;;;;;;20.12;99.80;101540.16;5052680;28;20366;-84
2023/08/18 11:03:06;;;;;;;21.25;11.98;;;;;;;20.19;99.30;101541.59;5051218;28;20029;-84
2023/08/18 11:05:31;;;;;;;25.08;15.90;;;;;;;20.20;95.76;101538.03;5052839;28;20033;-84
2023/08/18 11:07:58;;;;;;;21.57;12.47;;;;;;;20.33;97.90;101526.94;5052689;28;20048;-83
2023/08/18 11:10:23;;;;;;;;;;;;;;;20.57;97.64;101530.22;5051920;28;20099;-83
2023/08/18 11:12:51;;;;;;;18.70;10.55;;;;;;;20.67;96.33;101531.47;5052174;28;19936;-84